sensor_id;sensor_type;location;lat;lon;timestamp;P1;durP1;ratioP1;P2;durP2;ratioP2
55609;SDS011;41486;52.502;13.486;2023-03-01T00:01:12;9.35;;;5.57;;
55609;SDS011;41486;52.502;13.486;2023-03-01T00:03:42;10.73;;;5.38;;
55609;SDS011;41486;52.502;13.486;2023-03-01T00:06:11;12.25;;;5.20;;
55609;SDS011;41486;52.502;13.486;2023-03-01T00:08:39;10.05;;;5.38;;
55609;SDS011;41486;52.502;13.486;2023-03-01T00:11:07;8.55;;;5.25;;
55609;SDS011;41486;52.502;13.486;2023-03-01T00:13:41;9.73;;;6.53;;
55609;SDS011;41486;52.502;13.486;2023-03-01T00:16:10;10.30;;;5.07;;
55609;SDS011;41486;52.502;13.486;2023-03-01T00:18:39;11.32;;;5.82;;
55609;SDS011;41486;52.502;13.486;2023-03-01T00:21:07;11.27;;;5.95;;
55609;SDS011;41486;52.502;13.486;2023-03-01T00:23:36;11.90;;;5.82;;
55609;SDS011;41486;52.502;13.486;2023-03-01T00:26:08;9.57;;;5.57;;
55609;SDS011;41486;52.502;13.486;2023-03-01T00:28:41;11.18;;;5.82;;
55609;SDS011;41486;52.502;13.486;2023-03-01T00:31:10;12.57;;;5.88;;
55609;SDS011;41486;52.502;13.486;2023-03-01T00:33:40;11.75;;;5.65;;
55609;SDS011;41486;52.502;13.486;2023-03-01T00:36:09;8.98;;;6.25;;
55609;SDS011;41486;52.502;13.486;2023-03-01T00:38:39;11.63;;;6.10;;
55609;SDS011;41486;52.502;13.486;2023-03-01T00:41:11;9.32;;;5.25;;
55609;SDS011;41486;52.502;13.486;2023-03-01T00:43:42;11.05;;;6.13;;
55609;SDS011;41486;52.502;13.486;2023-03-01T00:46:11;12.65;;;5.78;;
55609;SDS011;41486;52.502;13.486;2023-03-01T00:48:41;13.38;;;5.88;;
55609;SDS011;41486;52.502;13.486;2023-03-01T00:51:09;13.23;;;5.20;;
55609;SDS011;41486;52.502;13.486;2023-03-01T00:53:39;8.90;;;4.40;;
55609;SDS011;41486;52.502;13.486;2023-03-01T00:56:09;9.82;;;5.78;;
55609;SDS011;41486;52.502;13.486;2023-03-01T00:58:37;16.30;;;5.70;;
55609;SDS011;41486;52.502;13.486;2023-03-01T01:01:11;11.63;;;4.80;;
55609;SDS011;41486;52.502;13.486;2023-03-01T01:03:45;8.55;;;5.13;;
55609;SDS011;41486;52.502;13.486;2023-03-01T01:06:18;11.90;;;5.80;;
55609;SDS011;41486;52.502;13.486;2023-03-01T01:08:47;14.65;;;6.60;;
55609;SDS011;41486;52.502;13.486;2023-03-01T01:11:15;15.77;;;6.35;;
55609;SDS011;41486;52.502;13.486;2023-03-01T01:13:44;10.60;;;5.70;;
55609;SDS011;41486;52.502;13.486;2023-03-01T01:16:15;10.60;;;5.63;;
55609;SDS011;41486;52.502;13.486;2023-03-01T01:18:45;11.82;;;5.93;;
55609;SDS011;41486;52.502;13.486;2023-03-01T01:21:13;13.23;;;5.85;;
55609;SDS011;41486;52.502;13.486;2023-03-01T01:23:43;9.52;;;5.43;;
55609;SDS011;41486;52.502;13.486;2023-03-01T01:26:13;14.05;;;5.38;;
55609;SDS011;41486;52.502;13.486;2023-03-01T01:28:42;8.57;;;5.13;;
55609;SDS011;41486;52.502;13.486;2023-03-01T01:31:10;13.73;;;6.57;;
55609;SDS011;41486;52.502;13.486;2023-03-01T01:33:39;13.48;;;6.55;;
55609;SDS011;41486;52.502;13.486;2023-03-01T01:36:07;11.75;;;5.80;;
55609;SDS011;41486;52.502;13.486;2023-03-01T01:38:37;10.45;;;5.63;;
55609;SDS011;41486;52.502;13.486;2023-03-01T01:41:06;10.43;;;5.95;;
55609;SDS011;41486;52.502;13.486;2023-03-01T01:43:35;13.52;;;6.72;;
55609;SDS011;41486;52.502;13.486;2023-03-01T01:46:05;11.88;;;6.72;;
55609;SDS011;41486;52.502;13.486;2023-03-01T01:48:42;12.07;;;6.22;;
55609;SDS011;41486;52.502;13.486;2023-03-01T01:51:12;12.13;;;6.07;;
55609;SDS011;41486;52.502;13.486;2023-03-01T01:53:47;13.80;;;5.55;;
55609;SDS011;41486;52.502;13.486;2023-03-01T01:56:20;14.13;;;5.38;;
55609;SDS011;41486;52.502;13.486;2023-03-01T01:58:50;8.93;;;5.25;;
55609;SDS011;41486;52.502;13.486;2023-03-01T02:01:19;9.43;;;5.97;;
55609;SDS011;41486;52.502;13.486;2023-03-01T02:03:50;11.25;;;6.20;;
55609;SDS011;41486;52.502;13.486;2023-03-01T02:06:20;9.70;;;5.47;;
55609;SDS011;41486;52.502;13.486;2023-03-01T02:08:56;10.98;;;5.30;;
55609;SDS011;41486;52.502;13.486;2023-03-01T02:11:26;12.68;;;6.18;;
55609;SDS011;41486;52.502;13.486;2023-03-01T02:13:55;11.13;;;6.22;;
55609;SDS011;41486;52.502;13.486;2023-03-01T02:16:23;12.05;;;5.30;;
55609;SDS011;41486;52.502;13.486;2023-03-01T02:18:56;13.27;;;5.32;;
55609;SDS011;41486;52.502;13.486;2023-03-01T02:21:35;9.77;;;5.25;;
55609;SDS011;41486;52.502;13.486;2023-03-01T02:24:14;13.00;;;6.22;;
55609;SDS011;41486;52.502;13.486;2023-03-01T02:26:54;9.05;;;5.50;;
55609;SDS011;41486;52.502;13.486;2023-03-01T02:29:26;9.57;;;5.35;;
55609;SDS011;41486;52.502;13.486;2023-03-01T02:31:56;10.35;;;5.95;;
55609;SDS011;41486;52.502;13.486;2023-03-01T02:34:26;11.77;;;6.37;;
55609;SDS011;41486;52.502;13.486;2023-03-01T02:36:56;9.32;;;5.38;;
55609;SDS011;41486;52.502;13.486;2023-03-01T02:39:31;12.00;;;7.00;;
55609;SDS011;41486;52.502;13.486;2023-03-01T02:42:01;12.20;;;7.05;;
55609;SDS011;41486;52.502;13.486;2023-03-01T02:44:32;12.23;;;6.68;;
55609;SDS011;41486;52.502;13.486;2023-03-01T02:47:01;14.27;;;7.30;;
55609;SDS011;41486;52.502;13.486;2023-03-01T02:49:31;12.93;;;7.57;;
55609;SDS011;41486;52.502;13.486;2023-03-01T02:52:04;14.65;;;6.97;;
55609;SDS011;41486;52.502;13.486;2023-03-01T02:54:50;13.10;;;6.90;;
55609;SDS011;41486;52.502;13.486;2023-03-01T02:57:23;14.05;;;6.40;;
55609;SDS011;41486;52.502;13.486;2023-03-01T02:59:55;11.45;;;7.18;;
55609;SDS011;41486;52.502;13.486;2023-03-01T03:02:25;12.65;;;6.05;;
55609;SDS011;41486;52.502;13.486;2023-03-01T03:05:08;10.02;;;5.68;;
55609;SDS011;41486;52.502;13.486;2023-03-01T03:07:39;13.75;;;6.50;;
55609;SDS011;41486;52.502;13.486;2023-03-01T03:10:09;11.10;;;5.68;;
55609;SDS011;41486;52.502;13.486;2023-03-01T03:12:38;10.25;;;6.55;;
55609;SDS011;41486;52.502;13.486;2023-03-01T03:15:11;11.82;;;6.75;;
55609;SDS011;41486;52.502;13.486;2023-03-01T03:17:40;12.43;;;6.90;;
55609;SDS011;41486;52.502;13.486;2023-03-01T03:20:12;14.13;;;7.32;;
55609;SDS011;41486;52.502;13.486;2023-03-01T03:22:45;10.27;;;6.57;;
55609;SDS011;41486;52.502;13.486;2023-03-01T03:25:14;16.20;;;7.63;;
55609;SDS011;41486;52.502;13.486;2023-03-01T03:27:44;10.15;;;6.05;;
55609;SDS011;41486;52.502;13.486;2023-03-01T03:30:15;9.85;;;6.60;;
55609;SDS011;41486;52.502;13.486;2023-03-01T03:32:45;14.33;;;8.23;;
55609;SDS011;41486;52.502;13.486;2023-03-01T03:35:19;14.30;;;7.35;;
55609;SDS011;41486;52.502;13.486;2023-03-01T03:37:48;13.97;;;7.30;;
55609;SDS011;41486;52.502;13.486;2023-03-01T03:40:33;10.68;;;6.90;;
55609;SDS011;41486;52.502;13.486;2023-03-01T03:43:02;13.47;;;7.90;;
55609;SDS011;41486;52.502;13.486;2023-03-01T03:45:33;14.20;;;7.43;;
55609;SDS011;41486;52.502;13.486;2023-03-01T03:48:02;10.93;;;6.50;;
55609;SDS011;41486;52.502;13.486;2023-03-01T03:50:32;11.33;;;6.80;;
55609;SDS011;41486;52.502;13.486;2023-03-01T03:53:00;14.27;;;7.57;;
55609;SDS011;41486;52.502;13.486;2023-03-01T03:55:30;8.57;;;6.23;;
55609;SDS011;41486;52.502;13.486;2023-03-01T03:58:00;10.67;;;6.47;;
55609;SDS011;41486;52.502;13.486;2023-03-01T04:00:34;11.87;;;6.73;;
55609;SDS011;41486;52.502;13.486;2023-03-01T04:03:03;12.00;;;6.00;;
55609;SDS011;41486;52.502;13.486;2023-03-01T04:05:32;9.57;;;6.13;;
55609;SDS011;41486;52.502;13.486;2023-03-01T04:08:00;12.68;;;6.55;;
55609;SDS011;41486;52.502;13.486;2023-03-01T04:10:33;15.83;;;6.97;;
55609;SDS011;41486;52.502;13.486;2023-03-01T04:13:03;11.73;;;7.07;;
55609;SDS011;41486;52.502;13.486;2023-03-01T04:15:32;13.57;;;8.53;;
55609;SDS011;41486;52.502;13.486;2023-03-01T04:18:02;12.93;;;6.80;;
55609;SDS011;41486;52.502;13.486;2023-03-01T04:20:32;13.30;;;7.90;;
55609;SDS011;41486;52.502;13.486;2023-03-01T04:23:02;17.23;;;7.87;;
55609;SDS011;41486;52.502;13.486;2023-03-01T04:25:37;11.43;;;7.23;;
55609;SDS011;41486;52.502;13.486;2023-03-01T04:28:06;10.60;;;7.43;;
55609;SDS011;41486;52.502;13.486;2023-03-01T04:30:36;10.90;;;6.37;;
55609;SDS011;41486;52.502;13.486;2023-03-01T04:33:05;14.33;;;8.07;;
55609;SDS011;41486;52.502;13.486;2023-03-01T04:35:35;11.70;;;7.93;;
55609;SDS011;41486;52.502;13.486;2023-03-01T04:38:04;12.37;;;6.97;;
55609;SDS011;41486;52.502;13.486;2023-03-01T04:40:33;14.13;;;8.03;;
55609;SDS011;41486;52.502;13.486;2023-03-01T04:43:02;12.67;;;7.90;;
55609;SDS011;41486;52.502;13.486;2023-03-01T04:45:31;13.13;;;6.97;;
55609;SDS011;41486;52.502;13.486;2023-03-01T04:48:02;13.90;;;7.23;;
55609;SDS011;41486;52.502;13.486;2023-03-01T04:50:31;11.57;;;7.43;;
55609;SDS011;41486;52.502;13.486;2023-03-01T04:53:00;13.03;;;6.90;;
55609;SDS011;41486;52.502;13.486;2023-03-01T04:55:28;14.00;;;6.70;;
55609;SDS011;41486;52.502;13.486;2023-03-01T04:57:56;9.40;;;6.83;;
55609;SDS011;41486;52.502;13.486;2023-03-01T05:00:24;17.20;;;7.13;;
55609;SDS011;41486;52.502;13.486;2023-03-01T05:02:52;11.17;;;6.77;;
55609;SDS011;41486;52.502;13.486;2023-03-01T05:05:24;13.10;;;7.30;;
55609;SDS011;41486;52.502;13.486;2023-03-01T05:07:54;16.13;;;6.60;;
55609;SDS011;41486;52.502;13.486;2023-03-01T05:10:23;13.03;;;6.80;;
55609;SDS011;41486;52.502;13.486;2023-03-01T05:12:52;11.13;;;6.30;;
55609;SDS011;41486;52.502;13.486;2023-03-01T05:15:20;10.37;;;7.07;;
55609;SDS011;41486;52.502;13.486;2023-03-01T05:17:52;13.40;;;7.13;;
55609;SDS011;41486;52.502;13.486;2023-03-01T05:20:21;10.40;;;7.30;;
55609;SDS011;41486;52.502;13.486;2023-03-01T05:22:51;11.40;;;6.50;;
55609;SDS011;41486;52.502;13.486;2023-03-01T05:25:19;10.23;;;7.03;;
55609;SDS011;41486;52.502;13.486;2023-03-01T05:27:48;12.40;;;6.50;;
55609;SDS011;41486;52.502;13.486;2023-03-01T05:30:16;10.50;;;5.60;;
55609;SDS011;41486;52.502;13.486;2023-03-01T05:32:45;10.10;;;7.13;;
55609;SDS011;41486;52.502;13.486;2023-03-01T05:35:16;14.30;;;6.30;;
55609;SDS011;41486;52.502;13.486;2023-03-01T05:37:47;10.40;;;6.90;;
55609;SDS011;41486;52.502;13.486;2023-03-01T05:40:17;12.53;;;8.27;;
55609;SDS011;41486;52.502;13.486;2023-03-01T05:42:47;10.97;;;6.53;;
55609;SDS011;41486;52.502;13.486;2023-03-01T05:45:16;10.77;;;7.37;;
55609;SDS011;41486;52.502;13.486;2023-03-01T05:47:46;9.93;;;6.17;;
55609;SDS011;41486;52.502;13.486;2023-03-01T05:50:16;14.33;;;6.50;;
55609;SDS011;41486;52.502;13.486;2023-03-01T05:52:48;12.50;;;6.00;;
55609;SDS011;41486;52.502;13.486;2023-03-01T05:55:17;10.10;;;6.47;;
55609;SDS011;41486;52.502;13.486;2023-03-01T05:57:46;13.27;;;6.30;;
55609;SDS011;41486;52.502;13.486;2023-03-01T06:00:17;10.50;;;6.00;;
55609;SDS011;41486;52.502;13.486;2023-03-01T06:02:46;11.17;;;6.43;;
55609;SDS011;41486;52.502;13.486;2023-03-01T06:05:14;12.77;;;7.47;;
55609;SDS011;41486;52.502;13.486;2023-03-01T06:07:42;13.87;;;7.40;;
55609;SDS011;41486;52.502;13.486;2023-03-01T06:10:12;11.33;;;7.40;;
55609;SDS011;41486;52.502;13.486;2023-03-01T06:12:41;13.73;;;6.43;;
55609;SDS011;41486;52.502;13.486;2023-03-01T06:15:10;11.03;;;6.63;;
55609;SDS011;41486;52.502;13.486;2023-03-01T06:17:40;14.73;;;6.97;;
55609;SDS011;41486;52.502;13.486;2023-03-01T06:20:10;14.60;;;7.33;;
55609;SDS011;41486;52.502;13.486;2023-03-01T06:22:40;14.10;;;7.23;;
55609;SDS011;41486;52.502;13.486;2023-03-01T06:25:09;15.20;;;6.57;;
55609;SDS011;41486;52.502;13.486;2023-03-01T06:27:40;14.00;;;7.37;;
55609;SDS011;41486;52.502;13.486;2023-03-01T06:30:10;10.77;;;6.80;;
55609;SDS011;41486;52.502;13.486;2023-03-01T06:32:40;12.00;;;7.10;;
55609;SDS011;41486;52.502;13.486;2023-03-01T06:35:09;12.13;;;7.10;;
55609;SDS011;41486;52.502;13.486;2023-03-01T06:37:37;12.97;;;7.30;;
55609;SDS011;41486;52.502;13.486;2023-03-01T06:40:06;14.47;;;7.70;;
55609;SDS011;41486;52.502;13.486;2023-03-01T06:42:38;10.20;;;6.53;;
55609;SDS011;41486;52.502;13.486;2023-03-01T06:45:09;14.20;;;7.63;;
55609;SDS011;41486;52.502;13.486;2023-03-01T06:47:38;23.13;;;9.87;;
55609;SDS011;41486;52.502;13.486;2023-03-01T06:50:06;13.00;;;8.33;;
55609;SDS011;41486;52.502;13.486;2023-03-01T06:52:35;14.70;;;8.83;;
55609;SDS011;41486;52.502;13.486;2023-03-01T06:55:03;18.40;;;10.20;;
55609;SDS011;41486;52.502;13.486;2023-03-01T06:57:32;16.93;;;9.50;;
55609;SDS011;41486;52.502;13.486;2023-03-01T07:00:01;17.40;;;8.90;;
55609;SDS011;41486;52.502;13.486;2023-03-01T07:02:29;19.03;;;8.27;;
55609;SDS011;41486;52.502;13.486;2023-03-01T07:04:57;15.30;;;8.03;;
55609;SDS011;41486;52.502;13.486;2023-03-01T07:07:27;11.83;;;7.57;;
55609;SDS011;41486;52.502;13.486;2023-03-01T07:09:58;27.55;;;8.43;;
55609;SDS011;41486;52.502;13.486;2023-03-01T07:12:26;14.95;;;8.45;;
55609;SDS011;41486;52.502;13.486;2023-03-01T07:14:54;13.35;;;8.40;;
55609;SDS011;41486;52.502;13.486;2023-03-01T07:17:25;16.17;;;8.48;;
55609;SDS011;41486;52.502;13.486;2023-03-01T07:19:53;14.10;;;8.38;;
55609;SDS011;41486;52.502;13.486;2023-03-01T07:22:21;20.50;;;8.48;;
55609;SDS011;41486;52.502;13.486;2023-03-01T07:24:49;18.45;;;9.05;;
55609;SDS011;41486;52.502;13.486;2023-03-01T07:27:17;16.38;;;7.78;;
55609;SDS011;41486;52.502;13.486;2023-03-01T07:29:47;14.75;;;8.70;;
55609;SDS011;41486;52.502;13.486;2023-03-01T07:32:14;17.52;;;7.78;;
55609;SDS011;41486;52.502;13.486;2023-03-01T07:34:44;10.35;;;6.55;;
55609;SDS011;41486;52.502;13.486;2023-03-01T07:37:12;11.48;;;7.40;;
55609;SDS011;41486;52.502;13.486;2023-03-01T07:39:40;13.23;;;8.07;;
55609;SDS011;41486;52.502;13.486;2023-03-01T07:42:08;10.98;;;7.05;;
55609;SDS011;41486;52.502;13.486;2023-03-01T07:44:36;16.70;;;8.25;;
55609;SDS011;41486;52.502;13.486;2023-03-01T07:47:11;13.00;;;7.50;;
55609;SDS011;41486;52.502;13.486;2023-03-01T07:49:39;12.55;;;7.68;;
55609;SDS011;41486;52.502;13.486;2023-03-01T07:52:10;12.98;;;7.65;;
55609;SDS011;41486;52.502;13.486;2023-03-01T07:54:38;13.95;;;7.53;;
55609;SDS011;41486;52.502;13.486;2023-03-01T07:57:06;16.55;;;8.93;;
55609;SDS011;41486;52.502;13.486;2023-03-01T07:59:34;17.70;;;8.85;;
55609;SDS011;41486;52.502;13.486;2023-03-01T08:02:02;15.68;;;8.77;;
55609;SDS011;41486;52.502;13.486;2023-03-01T08:04:30;18.80;;;8.80;;
55609;SDS011;41486;52.502;13.486;2023-03-01T08:06:59;13.63;;;8.27;;
55609;SDS011;41486;52.502;13.486;2023-03-01T08:09:28;12.02;;;8.32;;
55609;SDS011;41486;52.502;13.486;2023-03-01T08:12:01;16.20;;;7.45;;
55609;SDS011;41486;52.502;13.486;2023-03-01T08:14:31;13.88;;;7.10;;
55609;SDS011;41486;52.502;13.486;2023-03-01T08:16:59;11.95;;;6.38;;
55609;SDS011;41486;52.502;13.486;2023-03-01T08:19:29;14.23;;;6.80;;
55609;SDS011;41486;52.502;13.486;2023-03-01T08:21:57;14.07;;;6.53;;
55609;SDS011;41486;52.502;13.486;2023-03-01T08:24:29;10.35;;;6.50;;
55609;SDS011;41486;52.502;13.486;2023-03-01T08:26:57;14.02;;;5.78;;
55609;SDS011;41486;52.502;13.486;2023-03-01T08:29:25;14.10;;;6.93;;
55609;SDS011;41486;52.502;13.486;2023-03-01T08:31:56;17.08;;;7.80;;
55609;SDS011;41486;52.502;13.486;2023-03-01T08:34:24;11.27;;;5.35;;
55609;SDS011;41486;52.502;13.486;2023-03-01T08:36:52;13.13;;;6.22;;
55609;SDS011;41486;52.502;13.486;2023-03-01T08:39:20;10.40;;;5.70;;
55609;SDS011;41486;52.502;13.486;2023-03-01T08:41:50;10.18;;;5.85;;
55609;SDS011;41486;52.502;13.486;2023-03-01T08:44:18;14.00;;;6.32;;
55609;SDS011;41486;52.502;13.486;2023-03-01T08:46:47;10.52;;;5.57;;
55609;SDS011;41486;52.502;13.486;2023-03-01T08:49:17;17.40;;;5.80;;
55609;SDS011;41486;52.502;13.486;2023-03-01T08:51:46;13.70;;;5.60;;
55609;SDS011;41486;52.502;13.486;2023-03-01T08:54:15;13.30;;;5.20;;
55609;SDS011;41486;52.502;13.486;2023-03-01T08:56:45;8.88;;;4.88;;
55609;SDS011;41486;52.502;13.486;2023-03-01T08:59:15;7.78;;;4.57;;
55609;SDS011;41486;52.502;13.486;2023-03-01T09:01:46;12.05;;;4.90;;
55609;SDS011;41486;52.502;13.486;2023-03-01T09:04:14;10.32;;;5.10;;
55609;SDS011;41486;52.502;13.486;2023-03-01T09:06:42;9.45;;;4.38;;
55609;SDS011;41486;52.502;13.486;2023-03-01T09:09:12;12.15;;;5.88;;
55609;SDS011;41486;52.502;13.486;2023-03-01T09:11:42;8.55;;;3.83;;
55609;SDS011;41486;52.502;13.486;2023-03-01T09:14:12;5.18;;;3.08;;
55609;SDS011;41486;52.502;13.486;2023-03-01T09:16:42;6.95;;;3.28;;
55609;SDS011;41486;52.502;13.486;2023-03-01T09:19:10;6.57;;;3.10;;
55609;SDS011;41486;52.502;13.486;2023-03-01T09:21:38;5.65;;;3.50;;
55609;SDS011;41486;52.502;13.486;2023-03-01T09:24:08;6.07;;;3.00;;
55609;SDS011;41486;52.502;13.486;2023-03-01T09:26:40;7.60;;;3.03;;
55609;SDS011;41486;52.502;13.486;2023-03-01T09:29:08;4.20;;;2.80;;
55609;SDS011;41486;52.502;13.486;2023-03-01T09:31:37;6.28;;;3.13;;
55609;SDS011;41486;52.502;13.486;2023-03-01T09:34:07;4.82;;;2.72;;
55609;SDS011;41486;52.502;13.486;2023-03-01T09:36:36;9.07;;;3.10;;
55609;SDS011;41486;52.502;13.486;2023-03-01T09:39:04;5.45;;;3.35;;
55609;SDS011;41486;52.502;13.486;2023-03-01T09:41:38;5.15;;;2.63;;
55609;SDS011;41486;52.502;13.486;2023-03-01T09:44:16;6.30;;;2.30;;
55609;SDS011;41486;52.502;13.486;2023-03-01T09:46:51;5.93;;;2.67;;
55609;SDS011;41486;52.502;13.486;2023-03-01T09:49:21;4.32;;;3.15;;
55609;SDS011;41486;52.502;13.486;2023-03-01T09:51:56;4.38;;;2.97;;
55609;SDS011;41486;52.502;13.486;2023-03-01T09:54:27;7.10;;;2.95;;
55609;SDS011;41486;52.502;13.486;2023-03-01T09:57:01;5.53;;;2.60;;
55609;SDS011;41486;52.502;13.486;2023-03-01T09:59:52;5.00;;;2.72;;
55609;SDS011;41486;52.502;13.486;2023-03-01T10:02:32;7.80;;;2.42;;
55609;SDS011;41486;52.502;13.486;2023-03-01T10:05:13;8.85;;;4.72;;
55609;SDS011;41486;52.502;13.486;2023-03-01T10:07:53;6.53;;;2.78;;
55609;SDS011;41486;52.502;13.486;2023-03-01T10:10:29;7.55;;;2.28;;
55609;SDS011;41486;52.502;13.486;2023-03-01T10:13:04;2.75;;;1.95;;
55609;SDS011;41486;52.502;13.486;2023-03-01T10:15:41;3.70;;;1.90;;
55609;SDS011;41486;52.502;13.486;2023-03-01T10:18:12;7.85;;;2.10;;
55609;SDS011;41486;52.502;13.486;2023-03-01T10:20:46;19.45;;;4.20;;
55609;SDS011;41486;52.502;13.486;2023-03-01T10:23:19;4.43;;;3.10;;
55609;SDS011;41486;52.502;13.486;2023-03-01T10:25:50;8.60;;;3.75;;
55609;SDS011;41486;52.502;13.486;2023-03-01T10:28:35;5.75;;;2.08;;
55609;SDS011;41486;52.502;13.486;2023-03-01T10:31:16;7.45;;;2.20;;
55609;SDS011;41486;52.502;13.486;2023-03-01T10:33:55;5.70;;;2.58;;
55609;SDS011;41486;52.502;13.486;2023-03-01T10:36:26;4.25;;;2.35;;
55609;SDS011;41486;52.502;13.486;2023-03-01T10:38:55;4.50;;;2.00;;
55609;SDS011;41486;52.502;13.486;2023-03-01T10:41:25;6.75;;;2.55;;
55609;SDS011;41486;52.502;13.486;2023-03-01T10:43:56;2.47;;;1.90;;
55609;SDS011;41486;52.502;13.486;2023-03-01T10:46:27;2.22;;;1.70;;
55609;SDS011;41486;52.502;13.486;2023-03-01T10:49:06;6.57;;;1.67;;
55609;SDS011;41486;52.502;13.486;2023-03-01T10:51:41;5.03;;;2.33;;
55609;SDS011;41486;52.502;13.486;2023-03-01T10:54:16;6.00;;;2.40;;
55609;SDS011;41486;52.502;13.486;2023-03-01T10:56:48;5.05;;;1.85;;
55609;SDS011;41486;52.502;13.486;2023-03-01T10:59:21;4.85;;;1.73;;
55609;SDS011;41486;52.502;13.486;2023-03-01T11:04:57;4.47;;;1.88;;
55609;SDS011;41486;52.502;13.486;2023-03-01T11:07:28;2.55;;;1.95;;
55609;SDS011;41486;52.502;13.486;2023-03-01T11:09:56;3.75;;;1.42;;
55609;SDS011;41486;52.502;13.486;2023-03-01T11:12:24;3.55;;;2.28;;
55609;SDS011;41486;52.502;13.486;2023-03-01T11:14:56;3.63;;;2.30;;
55609;SDS011;41486;52.502;13.486;2023-03-01T11:17:27;3.50;;;1.92;;
55609;SDS011;41486;52.502;13.486;2023-03-01T11:20:06;4.60;;;2.42;;
55609;SDS011;41486;52.502;13.486;2023-03-01T11:22:45;4.85;;;1.80;;
55609;SDS011;41486;52.502;13.486;2023-03-01T11:25:15;1.85;;;1.58;;
55609;SDS011;41486;52.502;13.486;2023-03-01T11:27:46;4.05;;;1.88;;
55609;SDS011;41486;52.502;13.486;2023-03-01T11:30:15;4.78;;;1.98;;
55609;SDS011;41486;52.502;13.486;2023-03-01T11:32:50;3.83;;;1.95;;
55609;SDS011;41486;52.502;13.486;2023-03-01T11:35:28;5.25;;;1.65;;
55609;SDS011;41486;52.502;13.486;2023-03-01T11:38:04;4.78;;;2.33;;
55609;SDS011;41486;52.502;13.486;2023-03-01T11:40:44;3.03;;;1.83;;
55609;SDS011;41486;52.502;13.486;2023-03-01T11:43:23;2.50;;;1.58;;
55609;SDS011;41486;52.502;13.486;2023-03-01T11:46:02;4.03;;;2.00;;
55609;SDS011;41486;52.502;13.486;2023-03-01T11:49:10;3.95;;;2.25;;
55609;SDS011;41486;52.502;13.486;2023-03-01T11:51:58;4.30;;;1.83;;
55609;SDS011;41486;52.502;13.486;2023-03-01T11:54:38;6.25;;;2.50;;
55609;SDS011;41486;52.502;13.486;2023-03-01T11:57:32;2.42;;;1.77;;
55609;SDS011;41486;52.502;13.486;2023-03-01T12:00:20;5.10;;;1.73;;
55609;SDS011;41486;52.502;13.486;2023-03-01T12:03:12;2.50;;;1.83;;
55609;SDS011;41486;52.502;13.486;2023-03-01T12:06:00;3.90;;;2.05;;
55609;SDS011;41486;52.502;13.486;2023-03-01T12:08:52;5.95;;;1.35;;
55609;SDS011;41486;52.502;13.486;2023-03-01T12:11:34;4.85;;;1.83;;
55609;SDS011;41486;52.502;13.486;2023-03-01T12:14:21;12.60;;;6.07;;
55609;SDS011;41486;52.502;13.486;2023-03-01T12:17:15;4.63;;;2.63;;
55609;SDS011;41486;52.502;13.486;2023-03-01T12:22:48;3.60;;;1.15;;
55609;SDS011;41486;52.502;13.486;2023-03-01T12:25:53;3.20;;;1.77;;
55609;SDS011;41486;52.502;13.486;2023-03-01T12:28:36;3.08;;;1.90;;
55609;SDS011;41486;52.502;13.486;2023-03-01T12:31:31;2.05;;;1.48;;
55609;SDS011;41486;52.502;13.486;2023-03-01T12:34:11;3.53;;;2.00;;
55609;SDS011;41486;52.502;13.486;2023-03-01T12:37:03;3.20;;;1.45;;
55609;SDS011;41486;52.502;13.486;2023-03-01T12:39:50;4.40;;;1.73;;
55609;SDS011;41486;52.502;13.486;2023-03-01T12:42:31;2.75;;;1.65;;
55609;SDS011;41486;52.502;13.486;2023-03-01T12:45:21;2.63;;;1.58;;
55609;SDS011;41486;52.502;13.486;2023-03-01T12:48:01;2.65;;;1.23;;
55609;SDS011;41486;52.502;13.486;2023-03-01T12:50:39;3.60;;;1.70;;
55609;SDS011;41486;52.502;13.486;2023-03-01T12:53:15;2.10;;;1.42;;
55609;SDS011;41486;52.502;13.486;2023-03-01T12:55:49;3.63;;;1.63;;
55609;SDS011;41486;52.502;13.486;2023-03-01T12:58:21;3.00;;;1.80;;
55609;SDS011;41486;52.502;13.486;2023-03-01T13:01:13;2.85;;;1.58;;
55609;SDS011;41486;52.502;13.486;2023-03-01T13:04:01;2.10;;;1.50;;
55609;SDS011;41486;52.502;13.486;2023-03-01T13:06:39;1.85;;;1.48;;
55609;SDS011;41486;52.502;13.486;2023-03-01T13:09:14;2.67;;;1.48;;
55609;SDS011;41486;52.502;13.486;2023-03-01T13:11:52;1.80;;;1.23;;
55609;SDS011;41486;52.502;13.486;2023-03-01T13:17:40;2.97;;;1.58;;
55609;SDS011;41486;52.502;13.486;2023-03-01T13:20:13;1.80;;;1.05;;
55609;SDS011;41486;52.502;13.486;2023-03-01T13:22:42;2.33;;;1.33;;
55609;SDS011;41486;52.502;13.486;2023-03-01T13:25:20;5.25;;;1.83;;
55609;SDS011;41486;52.502;13.486;2023-03-01T13:31:02;7.22;;;1.70;;
55609;SDS011;41486;52.502;13.486;2023-03-01T13:33:46;4.90;;;1.60;;
55609;SDS011;41486;52.502;13.486;2023-03-01T13:39:28;2.40;;;1.25;;
55609;SDS011;41486;52.502;13.486;2023-03-01T13:41:59;2.05;;;1.38;;
55609;SDS011;41486;52.502;13.486;2023-03-01T13:44:30;3.10;;;1.88;;
55609;SDS011;41486;52.502;13.486;2023-03-01T13:47:02;2.53;;;1.65;;
55609;SDS011;41486;52.502;13.486;2023-03-01T13:49:43;2.22;;;1.73;;
55609;SDS011;41486;52.502;13.486;2023-03-01T13:52:22;6.85;;;2.40;;
55609;SDS011;41486;52.502;13.486;2023-03-01T13:55:02;2.35;;;1.42;;
55609;SDS011;41486;52.502;13.486;2023-03-01T13:57:32;5.32;;;1.70;;
55609;SDS011;41486;52.502;13.486;2023-03-01T14:00:03;2.80;;;1.67;;
55609;SDS011;41486;52.502;13.486;2023-03-01T14:02:32;2.75;;;1.42;;
55609;SDS011;41486;52.502;13.486;2023-03-01T14:05:05;4.97;;;2.00;;
55609;SDS011;41486;52.502;13.486;2023-03-01T14:07:38;2.72;;;1.40;;
55609;SDS011;41486;52.502;13.486;2023-03-01T14:10:08;2.47;;;1.50;;
55609;SDS011;41486;52.502;13.486;2023-03-01T14:12:41;3.80;;;2.13;;
55609;SDS011;41486;52.502;13.486;2023-03-01T14:15:18;6.38;;;2.17;;
55609;SDS011;41486;52.502;13.486;2023-03-01T14:17:53;4.55;;;1.65;;
55609;SDS011;41486;52.502;13.486;2023-03-01T14:20:30;3.83;;;2.97;;
55609;SDS011;41486;52.502;13.486;2023-03-01T14:23:02;2.75;;;1.60;;
55609;SDS011;41486;52.502;13.486;2023-03-01T14:25:45;2.53;;;1.38;;
55609;SDS011;41486;52.502;13.486;2023-03-01T14:28:16;2.65;;;1.58;;
55609;SDS011;41486;52.502;13.486;2023-03-01T14:30:47;2.40;;;1.55;;
55609;SDS011;41486;52.502;13.486;2023-03-01T14:33:21;4.85;;;1.40;;
55609;SDS011;41486;52.502;13.486;2023-03-01T14:35:53;1.95;;;1.10;;
55609;SDS011;41486;52.502;13.486;2023-03-01T14:38:33;2.95;;;1.52;;
55609;SDS011;41486;52.502;13.486;2023-03-01T14:41:05;2.28;;;1.40;;
55609;SDS011;41486;52.502;13.486;2023-03-01T14:43:40;3.08;;;1.45;;
55609;SDS011;41486;52.502;13.486;2023-03-01T14:46:16;3.35;;;2.55;;
55609;SDS011;41486;52.502;13.486;2023-03-01T14:48:49;3.90;;;1.65;;
55609;SDS011;41486;52.502;13.486;2023-03-01T14:51:19;3.38;;;1.67;;
55609;SDS011;41486;52.502;13.486;2023-03-01T14:53:48;6.60;;;1.90;;
55609;SDS011;41486;52.502;13.486;2023-03-01T14:56:17;3.42;;;1.30;;
55609;SDS011;41486;52.502;13.486;2023-03-01T14:58:45;2.50;;;1.73;;
55609;SDS011;41486;52.502;13.486;2023-03-01T15:01:18;3.00;;;1.50;;
55609;SDS011;41486;52.502;13.486;2023-03-01T15:03:46;6.93;;;1.77;;
55609;SDS011;41486;52.502;13.486;2023-03-01T15:06:17;4.28;;;1.98;;
55609;SDS011;41486;52.502;13.486;2023-03-01T15:08:49;4.40;;;1.15;;
55609;SDS011;41486;52.502;13.486;2023-03-01T15:11:20;3.30;;;1.30;;
55609;SDS011;41486;52.502;13.486;2023-03-01T15:13:51;4.13;;;1.38;;